Time,TemperatureF,DewpointF,PressureIn,WindDirection,WindDirectionDegrees,WindSpeedMPH,WindSpeedGustMPH,Humidity,HourlyPrecipIn,Conditions,Clouds,dailyrainin,SoftwareType,DateUTC
2013-01-17 00:00:00,8.0,2.0,-100.00,NNE,26,0.0,0.0,76,0.00,,,0.00,,2013-01-17 09:00:00,
2013-01-17 00:33:00,8.0,2.0,-100.00,NNE,26,0.0,0.0,76,0.00,,,0.00,,2013-01-17 09:33:00,
2013-01-17 00:42:00,8.0,2.0,-100.00,NNE,26,0.0,0.0,76,0.00,,,0.00,,2013-01-17 09:42:00,
2013-01-17 00:52:00,8.0,2.0,-100.00,NNE,26,0.0,0.0,76,0.00,,,0.00,,2013-01-17 09:52:00,
2013-01-17 01:00:00,8.0,2.0,-100.00,NNE,25,0.0,0.0,76,0.00,,,0.00,,2013-01-17 10:00:00,
2013-01-17 01:33:00,8.0,2.0,-100.00,NNE,25,0.0,0.0,76,0.00,,,0.00,,2013-01-17 10:33:00,
2013-01-17 01:43:00,8.0,2.0,-100.00,NNE,25,0.0,0.0,76,0.00,,,0.00,,2013-01-17 10:43:00,
2013-01-17 01:53:00,8.0,2.0,-100.00,NNE,25,0.0,0.0,76,0.00,,,0.00,,2013-01-17 10:53:00,
2013-01-17 02:00:00,7.0,1.0,-100.00,NNE,13,0.0,0.0,75,0.00,,,0.00,,2013-01-17 11:00:00,
2013-01-17 02:33:00,7.0,1.0,-100.00,NNE,13,0.0,0.0,75,0.00,,,0.00,,2013-01-17 11:33:00,
2013-01-17 02:43:00,7.0,1.0,-100.00,NNE,13,0.0,0.0,75,0.00,,,0.00,,2013-01-17 11:43:00,
2013-01-17 02:53:00,7.0,1.0,-100.00,NNE,13,0.0,0.0,75,0.00,,,0.00,,2013-01-17 11:53:00,
2013-01-17 03:00:00,7.0,1.0,-100.00,North,351,0.0,0.0,75,0.00,,,0.00,,2013-01-17 12:00:00,
2013-01-17 03:33:00,7.0,1.0,-100.00,North,351,0.0,0.0,75,0.00,,,0.00,,2013-01-17 12:33:00,
2013-01-17 03:43:00,7.0,1.0,-100.00,North,351,0.0,0.0,75,0.00,,,0.00,,2013-01-17 12:43:00,
2013-01-17 03:53:00,7.0,1.0,-100.00,North,351,0.0,0.0,75,0.00,,,0.00,,2013-01-17 12:53:00,
2013-01-17 04:00:00,7.0,0.0,-100.00,North,358,0.0,0.0,74,0.00,,,0.00,,2013-01-17 13:00:00,
2013-01-17 04:33:00,7.0,0.0,-100.00,North,358,0.0,0.0,74,0.00,,,0.00,,2013-01-17 13:33:00,
2013-01-17 04:43:00,7.0,0.0,-100.00,North,358,0.0,0.0,74,0.00,,,0.00,,2013-01-17 13:43:00,
2013-01-17 04:53:00,7.0,0.0,-100.00,North,358,0.0,0.0,74,0.00,,,0.00,,2013-01-17 13:53:00,
2013-01-17 05:00:00,6.0,0.0,-100.00,North,4,0.0,0.0,74,0.00,,,0.00,,2013-01-17 14:00:00,
2013-01-17 05:33:00,6.0,0.0,-100.00,North,4,0.0,0.0,74,0.00,,,0.00,,2013-01-17 14:33:00,
2013-01-17 05:43:00,6.0,0.0,-100.00,North,4,0.0,0.0,74,0.00,,,0.00,,2013-01-17 14:43:00,
2013-01-17 05:53:00,6.0,0.0,-100.00,North,4,0.0,0.0,74,0.00,,,0.00,,2013-01-17 14:53:00,
2013-01-17 06:00:00,4.0,-2.0,-100.00,North,356,0.0,0.0,75,0.00,,,0.00,,2013-01-17 15:00:00,
2013-01-17 06:33:00,4.0,-2.0,-100.00,North,356,0.0,0.0,75,0.00,,,0.00,,2013-01-17 15:33:00,
2013-01-17 06:43:00,4.0,-2.0,-100.00,North,356,0.0,0.0,75,0.00,,,0.00,,2013-01-17 15:43:00,
2013-01-17 06:53:00,4.0,-2.0,-100.00,North,356,0.0,0.0,75,0.00,,,0.00,,2013-01-17 15:53:00,
2013-01-17 07:00:00,3.0,-3.0,-100.00,North,354,0.0,0.0,74,0.00,,,0.00,,2013-01-17 16:00:00,
2013-01-17 07:33:00,3.0,-3.0,-100.00,North,354,0.0,0.0,74,0.00,,,0.00,,2013-01-17 16:33:00,
2013-01-17 07:44:00,3.0,-3.0,-100.00,North,354,0.0,0.0,74,0.00,,,0.00,,2013-01-17 16:44:00,
2013-01-17 07:53:00,3.0,-3.0,-100.00,North,354,0.0,0.0,74,0.00,,,0.00,,2013-01-17 16:53:00,
2013-01-17 08:00:00,2.0,-4.0,-100.00,NW,314,0.0,0.0,74,0.00,,,0.00,,2013-01-17 17:00:00,
2013-01-17 08:33:00,2.0,-4.0,-100.00,NW,314,0.0,0.0,74,0.00,,,0.00,,2013-01-17 17:33:00,
2013-01-17 08:43:00,2.0,-4.0,-100.00,NW,314,0.0,0.0,74,0.00,,,0.00,,2013-01-17 17:43:00,
2013-01-17 08:53:00,2.0,-4.0,-100.00,NW,314,0.0,0.0,74,0.00,,,0.00,,2013-01-17 17:53:00,
2013-01-17 09:00:00,-2.0,-8.0,-100.00,WNW,288,0.0,0.0,73,0.00,,,0.00,,2013-01-17 18:00:00,
2013-01-17 09:34:00,-2.0,-8.0,-100.00,WNW,288,0.0,0.0,73,0.00,,,0.00,,2013-01-17 18:34:00,
2013-01-17 09:44:00,-2.0,-8.0,-100.00,WNW,288,0.0,0.0,73,0.00,,,0.00,,2013-01-17 18:44:00,
2013-01-17 09:53:00,-2.0,-8.0,-100.00,WNW,288,0.0,0.0,73,0.00,,,0.00,,2013-01-17 18:53:00,
2013-01-17 10:00:00,-8.0,-15.0,-100.00,West,273,0.0,0.0,72,0.00,,,0.00,,2013-01-17 19:00:00,
2013-01-17 10:33:00,-8.0,-15.0,-100.00,West,273,0.0,0.0,72,0.00,,,0.00,,2013-01-17 19:33:00,
2013-01-17 10:43:00,-8.0,-15.0,-100.00,West,273,0.0,0.0,72,0.00,,,0.00,,2013-01-17 19:43:00,
2013-01-17 10:53:00,-8.0,-15.0,-100.00,West,273,0.0,0.0,72,0.00,,,0.00,,2013-01-17 19:53:00,
2013-01-17 11:00:00,-8.0,-14.0,-100.00,West,266,0.0,0.0,73,0.00,,,0.00,,2013-01-17 20:00:00,
2013-01-17 11:33:00,-8.0,-14.0,-100.00,West,266,0.0,0.0,73,0.00,,,0.00,,2013-01-17 20:33:00,
2013-01-17 11:43:00,-8.0,-14.0,-100.00,West,266,0.0,0.0,73,0.00,,,0.00,,2013-01-17 20:43:00,
2013-01-17 11:53:00,-8.0,-14.0,-100.00,West,266,0.0,0.0,73,0.00,,,0.00,,2013-01-17 20:53:00,
2013-01-17 12:00:00,-8.0,-15.0,-100.00,West,268,0.0,0.0,71,0.00,,,0.00,,2013-01-17 21:00:00,
2013-01-17 12:34:00,-8.0,-15.0,-100.00,West,268,0.0,0.0,71,0.00,,,0.00,,2013-01-17 21:34:00,
2013-01-17 12:43:00,-8.0,-15.0,-100.00,West,268,0.0,0.0,71,0.00,,,0.00,,2013-01-17 21:43:00,
2013-01-17 12:53:00,-8.0,-15.0,-100.00,West,268,0.0,0.0,71,0.00,,,0.00,,2013-01-17 21:53:00,
2013-01-17 13:00:00,-11.0,-18.0,-100.00,WNW,284,0.0,0.0,69,0.00,,,0.00,,2013-01-17 22:00:00,
2013-01-17 13:33:00,-11.0,-18.0,-100.00,WNW,284,0.0,0.0,69,0.00,,,0.00,,2013-01-17 22:33:00,
2013-01-17 13:43:00,-11.0,-18.0,-100.00,WNW,284,0.0,0.0,69,0.00,,,0.00,,2013-01-17 22:43:00,
2013-01-17 13:52:00,-11.0,-18.0,-100.00,WNW,284,0.0,0.0,69,0.00,,,0.00,,2013-01-17 22:52:00,
2013-01-17 14:00:00,-12.0,-19.0,-100.00,West,271,0.0,0.0,69,0.00,,,-99.99,,2013-01-17 23:00:00,
2013-01-17 14:33:00,-12.0,-19.0,-100.00,West,271,0.0,0.0,69,0.00,,,-99.99,,2013-01-17 23:33:00,
2013-01-17 14:43:00,-12.0,-19.0,-100.00,West,271,0.0,0.0,69,0.00,,,-99.99,,2013-01-17 23:43:00,
2013-01-17 14:53:00,-12.0,-19.0,-100.00,West,271,0.0,0.0,69,0.00,,,-99.99,,2013-01-17 23:53:00,
2013-01-17 15:00:00,-13.0,-21.0,-100.00,WNW,295,0.0,0.0,67,0.00,,,0.00,,2013-01-18 00:00:00,
2013-01-17 15:33:00,-13.0,-21.0,-100.00,WNW,295,0.0,0.0,67,0.00,,,0.00,,2013-01-18 00:33:00,
2013-01-17 15:43:00,-13.0,-21.0,-100.00,WNW,295,0.0,0.0,67,0.00,,,0.00,,2013-01-18 00:43:00,
2013-01-17 15:53:00,-13.0,-21.0,-100.00,WNW,295,0.0,0.0,67,0.00,,,0.00,,2013-01-18 00:53:00,
2013-01-17 16:00:00,-15.0,-22.0,-100.00,WNW,290,0.0,0.0,68,0.00,,,-99.99,,2013-01-18 01:00:00,
2013-01-17 16:33:00,-15.0,-22.0,-100.00,WNW,290,0.0,0.0,68,0.00,,,-99.99,,2013-01-18 01:33:00,
2013-01-17 16:43:00,-15.0,-99.9,-100.00,WNW,290,0.0,0.0,68,0.00,,,-99.99,,2013-01-18 01:43:00,
2013-01-17 16:53:00,-15.0,-99.9,-100.00,WNW,290,0.0,0.0,68,0.00,,,-99.99,,2013-01-18 01:53:00,
2013-01-17 17:00:00,-14.0,-20.0,-100.00,NW,325,0.0,0.0,72,0.00,,,0.00,,2013-01-18 02:00:00,
2013-01-17 17:33:00,-14.0,-20.0,-100.00,NW,325,0.0,0.0,72,0.00,,,0.00,,2013-01-18 02:33:00,
2013-01-17 17:43:00,-14.0,-20.0,-100.00,NW,325,0.0,0.0,72,0.00,,,0.00,,2013-01-18 02:43:00,
2013-01-17 17:53:00,-14.0,-20.0,-100.00,NW,325,0.0,0.0,72,0.00,,,0.00,,2013-01-18 02:53:00,
2013-01-17 18:00:00,-15.0,-22.0,-100.00,NW,319,0.0,0.0,68,0.00,,,0.00,,2013-01-18 03:00:00,
2013-01-17 18:33:00,-15.0,-22.0,-100.00,NW,319,0.0,0.0,68,0.00,,,0.00,,2013-01-18 03:33:00,
2013-01-17 18:43:00,-15.0,-22.0,-100.00,NW,319,0.0,0.0,68,0.00,,,0.00,,2013-01-18 03:43:00,
2013-01-17 18:52:00,-15.0,-22.0,-100.00,NW,319,0.0,0.0,68,0.00,,,0.00,,2013-01-18 03:52:00,
2013-01-17 19:00:00,-10.0,-16.0,-100.00,NE,41,0.0,0.0,72,0.00,,,0.00,,2013-01-18 04:00:00,
2013-01-17 19:33:00,-10.0,-16.0,-100.00,NE,41,0.0,0.0,72,0.00,,,0.00,,2013-01-18 04:33:00,
2013-01-17 19:42:00,-10.0,-16.0,-100.00,NE,41,0.0,0.0,72,0.00,,,0.00,,2013-01-18 04:42:00,
2013-01-17 19:53:00,-10.0,-16.0,-100.00,NE,41,0.0,0.0,72,0.00,,,0.00,,2013-01-18 04:53:00,
2013-01-17 20:00:00,-7.0,-14.0,-100.00,NE,43,0.0,0.0,70,0.00,,,0.00,,2013-01-18 05:00:00,
2013-01-17 20:33:00,-7.0,-14.0,-100.00,NE,43,0.0,0.0,70,0.00,,,0.00,,2013-01-18 05:33:00,
2013-01-17 20:43:00,-7.0,-14.0,-100.00,NE,43,0.0,0.0,70,0.00,,,0.00,,2013-01-18 05:43:00,
2013-01-17 20:53:00,-7.0,-14.0,-100.00,NE,43,0.0,0.0,70,0.00,,,0.00,,2013-01-18 05:53:00,
2013-01-17 21:00:00,-8.0,-16.0,-100.00,NNE,32,0.0,0.0,68,0.00,,,0.00,,2013-01-18 06:00:00,
2013-01-17 21:33:00,-8.0,-16.0,-100.00,NNE,32,0.0,0.0,68,0.00,,,0.00,,2013-01-18 06:33:00,
2013-01-17 21:43:00,-8.0,-16.0,-100.00,NNE,32,0.0,0.0,68,0.00,,,0.00,,2013-01-18 06:43:00,
2013-01-17 21:52:00,-8.0,-16.0,-100.00,NNE,32,0.0,0.0,68,0.00,,,0.00,,2013-01-18 06:52:00,
2013-01-17 22:00:00,-7.0,-15.0,-100.00,NE,45,0.0,0.0,68,0.00,,,0.00,,2013-01-18 07:00:00,
2013-01-17 22:33:00,-7.0,-15.0,-100.00,NE,45,0.0,0.0,68,0.00,,,0.00,,2013-01-18 07:33:00,
2013-01-17 22:42:00,-7.0,-15.0,-100.00,NE,45,0.0,0.0,68,0.00,,,0.00,,2013-01-18 07:42:00,
2013-01-17 22:52:00,-7.0,-15.0,-100.00,NE,45,0.0,0.0,68,0.00,,,0.00,,2013-01-18 07:52:00,
2013-01-17 23:00:00,-8.0,-16.0,-100.00,NE,43,0.0,0.0,66,0.00,,,0.00,,2013-01-18 08:00:00,
2013-01-17 23:33:00,-8.0,-16.0,-100.00,NE,43,0.0,0.0,66,0.00,,,0.00,,2013-01-18 08:33:00,
2013-01-17 23:42:00,-8.0,-16.0,-100.00,NE,43,0.0,0.0,66,0.00,,,0.00,,2013-01-18 08:42:00,
2013-01-17 23:53:00,-8.0,-16.0,-100.00,NE,43,0.0,0.0,66,0.00,,,0.00,,2013-01-18 08:53:00,